Wetterdaten: Woche 20.02.17 - 26.02.17 (KW8)
Datum Zeit Temperatur Luftfeuchte Luftdruck Niederschlag Windrichtung Sonnenschein Solar Wind
20.02.2017 00:00 3,6 C 92 % 1023,9 hPa 0,0 l/m W-SW 0,00 h 0 W/m 2,4 km/h (1 Bft)
20.02.2017 01:00 3,3 C 92 % 1023,7 hPa 0,0 l/m SW 0,00 h 0 W/m 7,2 km/h (2 Bft)
20.02.2017 02:00 3,2 C 92 % 1023,3 hPa 0,0 l/m SW 0,00 h 0 W/m 4,7 km/h (1 Bft)
20.02.2017 03:00 3,4 C 91 % 1022,9 hPa 0,0 l/m W-SW 0,00 h 0 W/m 12,4 km/h (3 Bft)
20.02.2017 04:00 4,0 C 86 % 1022,7 hPa 0,0 l/m W-SW 0,00 h 0 W/m 12,9 km/h (3 Bft)
20.02.2017 05:00 4,1 C 85 % 1022,8 hPa 0,0 l/m W-SW 0,00 h 0 W/m 9,1 km/h (2 Bft)
20.02.2017 06:00 3,9 C 86 % 1023,0 hPa 0,0 l/m W-SW 0,00 h 0 W/m 4,6 km/h (1 Bft)
20.02.2017 07:00 3,7 C 87 % 1023,1 hPa 0,0 l/m SW 0,00 h 16 W/m 11,2 km/h (2 Bft)
20.02.2017 08:00 4,0 C 87 % 1023,4 hPa 0,0 l/m W-SW 0,00 h 60 W/m 16,6 km/h (3 Bft)
20.02.2017 09:00 4,6 C 86 % 1023,3 hPa 0,0 l/m W-SW 0,00 h 120 W/m 20,5 km/h (4 Bft)
20.02.2017 10:00 5,4 C 84 % 1023,5 hPa 0,0 l/m W-SW 0,08 h 198 W/m 17,6 km/h (3 Bft)
20.02.2017 11:00 6,6 C 81 % 1023,5 hPa 0,0 l/m W-SW 0,33 h 269 W/m 18,4 km/h (3 Bft)
20.02.2017 12:00 7,6 C 77 % 1022,8 hPa 0,0 l/m SW 0,58 h 305 W/m 21,6 km/h (4 Bft)
20.02.2017 13:00 7,6 C 74 % 1021,9 hPa 0,0 l/m W-SW 0,00 h 219 W/m 26,0 km/h (4 Bft)
20.02.2017 14:00 8,0 C 74 % 1021,4 hPa 0,0 l/m W-SW 0,25 h 237 W/m 25,6 km/h (4 Bft)
20.02.2017 15:00 7,9 C 76 % 1020,8 hPa 0,0 l/m W-SW 0,00 h 143 W/m 26,0 km/h (4 Bft)
20.02.2017 16:00 7,7 C 78 % 1020,3 hPa 0,0 l/m W-SW 0,00 h 73 W/m 21,4 km/h (4 Bft)
20.02.2017 17:00 7,2 C 79 % 1020,2 hPa 0,0 l/m W-SW 0,00 h 15 W/m 19,2 km/h (3 Bft)
20.02.2017 18:00 6,8 C 80 % 1020,4 hPa 0,0 l/m W-SW 0,00 h 0 W/m 15,3 km/h (3 Bft)
20.02.2017 19:00 6,8 C 82 % 1020,3 hPa 0,0 l/m W-SW 0,00 h 0 W/m 21,3 km/h (4 Bft)
20.02.2017 20:00 6,6 C 86 % 1020,1 hPa 0,4 l/m SW 0,00 h 0 W/m 21,4 km/h (4 Bft)
20.02.2017 21:00 6,3 C 89 % 1020,1 hPa 0,8 l/m W-SW 0,00 h 0 W/m 21,4 km/h (4 Bft)
20.02.2017 22:00 5,8 C 93 % 1019,9 hPa 1,8 l/m W-SW 0,00 h 0 W/m 23,7 km/h (4 Bft)
20.02.2017 23:00 5,8 C 95 % 1019,8 hPa 0,8 l/m SW 0,00 h 0 W/m 27,6 km/h (4 Bft)
21.02.2017 00:00 5,9 C 96 % 1019,7 hPa 0,0 l/m W-SW 0,00 h 0 W/m 25,5 km/h (4 Bft)
21.02.2017 01:00 5,8 C 96 % 1019,4 hPa 0,0 l/m W-SW 0,00 h 0 W/m 26,1 km/h (4 Bft)
21.02.2017 02:00 5,8 C 97 % 1019,1 hPa 0,2 l/m W-SW 0,00 h 0 W/m 21,7 km/h (4 Bft)
21.02.2017 03:00 6,0 C 97 % 1018,6 hPa 0,0 l/m SW 0,00 h 0 W/m 25,6 km/h (4 Bft)
21.02.2017 04:00 6,2 C 97 % 1017,8 hPa 0,0 l/m W 0,00 h 0 W/m 28,3 km/h (4 Bft)
21.02.2017 05:00 6,4 C 97 % 1017,6 hPa 0,0 l/m W-SW 0,00 h 0 W/m 27,9 km/h (4 Bft)
21.02.2017 06:00 6,5 C 96 % 1017,4 hPa 0,0 l/m SW 0,00 h 0 W/m 25,6 km/h (4 Bft)
21.02.2017 07:00 6,7 C 96 % 1017,1 hPa 0,0 l/m W-SW 0,00 h 9 W/m 31,4 km/h (5 Bft)
21.02.2017 08:00 7,0 C 96 % 1017,2 hPa 0,0 l/m W-SW 0,00 h 17 W/m 32,1 km/h (5 Bft)
21.02.2017 09:00 6,9 C 95 % 1017,2 hPa 0,2 l/m W 0,00 h 52 W/m 31,4 km/h (5 Bft)
21.02.2017 10:00 7,5 C 95 % 1017,4 hPa 0,0 l/m SW 0,00 h 99 W/m 26,3 km/h (4 Bft)
21.02.2017 11:00 8,2 C 94 % 1017,6 hPa 0,0 l/m W 0,00 h 170 W/m 22,4 km/h (4 Bft)
21.02.2017 12:00 9,3 C 91 % 1017,4 hPa 0,0 l/m W 0,17 h 200 W/m 25,6 km/h (4 Bft)
21.02.2017 13:00 9,2 C 92 % 1017,3 hPa 0,0 l/m W-SW 0,00 h 110 W/m 22,9 km/h (4 Bft)
21.02.2017 14:00 9,2 C 92 % 1017,0 hPa 0,0 l/m W-SW 0,00 h 67 W/m 18,9 km/h (3 Bft)
21.02.2017 15:00 9,3 C 92 % 1016,8 hPa 0,0 l/m W-SW 0,00 h 78 W/m 18,8 km/h (3 Bft)
21.02.2017 16:00 9,4 C 91 % 1016,8 hPa 0,0 l/m W-SW 0,00 h 53 W/m 20,4 km/h (4 Bft)
21.02.2017 17:00 9,3 C 92 % 1017,1 hPa 0,0 l/m W-SW 0,00 h 16 W/m 19,4 km/h (3 Bft)
21.02.2017 18:00 9,2 C 91 % 1017,4 hPa 0,0 l/m W-SW 0,00 h 0 W/m 22,8 km/h (4 Bft)
21.02.2017 19:00 9,1 C 91 % 1017,3 hPa 0,0 l/m W 0,00 h 0 W/m 25,2 km/h (4 Bft)
21.02.2017 20:00 8,9 C 92 % 1017,1 hPa 0,0 l/m W-SW 0,00 h 0 W/m 22,9 km/h (4 Bft)
21.02.2017 21:00 8,5 C 93 % 1017,2 hPa 0,0 l/m W-SW 0,00 h 0 W/m 19,4 km/h (3 Bft)
21.02.2017 22:00 8,4 C 93 % 1017,3 hPa 0,0 l/m W-SW 0,00 h 0 W/m 17,6 km/h (3 Bft)
21.02.2017 23:00 8,3 C 94 % 1017,2 hPa 0,0 l/m W-SW 0,00 h 0 W/m 16,8 km/h (3 Bft)
22.02.2017 00:00 8,3 C 94 % 1017,1 hPa 0,0 l/m W-SW 0,00 h 0 W/m 16,2 km/h (3 Bft)
22.02.2017 01:00 8,3 C 93 % 1016,7 hPa 0,0 l/m W-SW 0,00 h 0 W/m 17,0 km/h (3 Bft)
22.02.2017 02:00 8,4 C 94 % 1016,1 hPa 0,0 l/m W-SW 0,00 h 0 W/m 24,1 km/h (4 Bft)
22.02.2017 03:00 8,4 C 93 % 1015,6 hPa 0,0 l/m W-SW 0,00 h 0 W/m 19,6 km/h (3 Bft)
22.02.2017 04:00 8,4 C 92 % 1015,0 hPa 0,0 l/m W-SW 0,00 h 0 W/m 25,6 km/h (4 Bft)
22.02.2017 05:00 8,6 C 90 % 1014,6 hPa 0,0 l/m W-SW 0,00 h 0 W/m 29,0 km/h (5 Bft)
22.02.2017 06:00 8,3 C 90 % 1014,5 hPa 0,0 l/m W-SW 0,00 h 0 W/m 25,2 km/h (4 Bft)
22.02.2017 07:00 8,2 C 90 % 1014,4 hPa 0,0 l/m W-SW 0,00 h 18 W/m 24,4 km/h (4 Bft)
22.02.2017 08:00 8,1 C 89 % 1014,4 hPa 0,0 l/m W-SW 0,08 h 62 W/m 27,5 km/h (4 Bft)
22.02.2017 09:00 8,9 C 84 % 1014,3 hPa 0,0 l/m W 0,67 h 267 W/m 34,6 km/h (5 Bft)
22.02.2017 10:00 9,2 C 81 % 1014,5 hPa 0,0 l/m W-SW 0,08 h 163 W/m 33,1 km/h (5 Bft)
22.02.2017 11:00 10,3 C 75 % 1014,6 hPa 0,0 l/m W 0,92 h 438 W/m 37,0 km/h (5 Bft)
22.02.2017 12:00 10,0 C 74 % 1014,3 hPa 0,0 l/m W-SW 0,50 h 279 W/m 34,9 km/h (5 Bft)
22.02.2017 13:00 9,4 C 75 % 1014,0 hPa 0,0 l/m W-SW 0,00 h 153 W/m 31,7 km/h (5 Bft)
22.02.2017 14:00 9,5 C 75 % 1013,5 hPa 0,0 l/m W 0,00 h 167 W/m 31,7 km/h (5 Bft)
22.02.2017 15:00 9,5 C 75 % 1012,9 hPa 0,0 l/m W-SW 0,50 h 192 W/m 29,6 km/h (5 Bft)
22.02.2017 16:00 9,3 C 75 % 1012,5 hPa 0,0 l/m W 0,42 h 117 W/m 24,8 km/h (4 Bft)
22.02.2017 17:00 8,6 C 77 % 1012,7 hPa 0,0 l/m W-SW 0,00 h 17 W/m 21,3 km/h (4 Bft)
22.02.2017 18:00 7,8 C 80 % 1012,5 hPa 0,0 l/m W-SW 0,00 h 0 W/m 12,2 km/h (2 Bft)
22.02.2017 19:00 7,6 C 81 % 1012,7 hPa 0,0 l/m W-SW 0,00 h 0 W/m 18,9 km/h (3 Bft)
22.02.2017 20:00 7,6 C 81 % 1012,7 hPa 0,0 l/m W-SW 0,00 h 0 W/m 19,2 km/h (3 Bft)
22.02.2017 21:00 7,6 C 82 % 1012,5 hPa 0,0 l/m W-SW 0,00 h 0 W/m 28,0 km/h (4 Bft)
22.02.2017 22:00 7,3 C 83 % 1012,5 hPa 0,0 l/m W-SW 0,00 h 0 W/m 20,1 km/h (4 Bft)
22.02.2017 23:00 7,4 C 81 % 1012,3 hPa 0,0 l/m W 0,00 h 0 W/m 22,2 km/h (4 Bft)
23.02.2017 00:00 7,6 C 79 % 1011,8 hPa 0,0 l/m W-SW 0,00 h 0 W/m 17,7 km/h (3 Bft)
23.02.2017 01:00 7,7 C 79 % 1011,6 hPa 0,0 l/m W-SW 0,00 h 0 W/m 19,2 km/h (3 Bft)
23.02.2017 02:00 7,4 C 81 % 1011,3 hPa 0,0 l/m W-SW 0,00 h 0 W/m 21,2 km/h (4 Bft)
23.02.2017 03:00 6,6 C 85 % 1010,8 hPa 0,0 l/m W-SW 0,00 h 0 W/m 22,2 km/h (4 Bft)
23.02.2017 04:00 6,3 C 86 % 1010,3 hPa 0,0 l/m SW 0,00 h 0 W/m 22,0 km/h (4 Bft)
23.02.2017 05:00 5,4 C 89 % 1009,9 hPa 0,0 l/m SW 0,00 h 0 W/m 19,3 km/h (3 Bft)
23.02.2017 06:00 5,0 C 92 % 1009,6 hPa 0,0 l/m W-SW 0,00 h 0 W/m 18,8 km/h (3 Bft)
23.02.2017 07:00 4,7 C 91 % 1009,2 hPa 0,0 l/m SW 0,08 h 22 W/m 16,9 km/h (3 Bft)
23.02.2017 08:00 5,1 C 91 % 1008,3 hPa 0,0 l/m SW 0,83 h 158 W/m 15,2 km/h (3 Bft)
23.02.2017 09:00 7,7 C 82 % 1007,4 hPa 0,0 l/m SW 0,92 h 286 W/m 19,8 km/h (4 Bft)
23.02.2017 10:00 10,7 C 67 % 1006,5 hPa 0,0 l/m W-SW 0,92 h 412 W/m 27,1 km/h (4 Bft)
23.02.2017 11:00 13,0 C 49 % 1006,0 hPa 0,0 l/m W-SW 0,75 h 351 W/m 35,0 km/h (5 Bft)
23.02.2017 12:00 13,5 C 47 % 1005,1 hPa 0,0 l/m W-SW 0,33 h 290 W/m 31,5 km/h (5 Bft)
23.02.2017 13:00 15,0 C 41 % 1003,7 hPa 0,0 l/m W-SW 0,42 h 329 W/m 35,1 km/h (5 Bft)
23.02.2017 14:00 15,9 C 38 % 1002,0 hPa 0,0 l/m W-SW 0,58 h 319 W/m 34,6 km/h (5 Bft)
23.02.2017 15:00 16,3 C 36 % 1000,7 hPa 0,0 l/m W 0,58 h 236 W/m 38,8 km/h (5 Bft)
23.02.2017 16:00 16,6 C 35 % 999,5 hPa 0,0 l/m W-SW 1,00 h 174 W/m 31,9 km/h (5 Bft)
23.02.2017 17:00 15,7 C 36 % 999,0 hPa 0,0 l/m W-SW 0,17 h 28 W/m 26,9 km/h (4 Bft)
23.02.2017 18:00 14,5 C 36 % 999,5 hPa 0,0 l/m W-SW 0,00 h 0 W/m 35,7 km/h (5 Bft)
23.02.2017 19:00 13,8 C 38 % 999,6 hPa 0,0 l/m W-SW 0,00 h 0 W/m 38,0 km/h (5 Bft)
23.02.2017 20:00 13,4 C 43 % 999,8 hPa 0,0 l/m W 0,00 h 0 W/m 40,8 km/h (6 Bft)
23.02.2017 21:00 12,5 C 48 % 1000,2 hPa 0,0 l/m W 0,00 h 0 W/m 36,8 km/h (5 Bft)
23.02.2017 22:00 11,6 C 56 % 1000,5 hPa 0,0 l/m W 0,00 h 0 W/m 36,5 km/h (5 Bft)
23.02.2017 23:00 10,6 C 64 % 1000,8 hPa 0,0 l/m W 0,00 h 0 W/m 37,0 km/h (5 Bft)
24.02.2017 00:00 9,6 C 71 % 1000,8 hPa 0,0 l/m W 0,00 h 0 W/m 38,2 km/h (5 Bft)
24.02.2017 01:00 8,4 C 76 % 1001,9 hPa 0,2 l/m W 0,00 h 0 W/m 34,9 km/h (5 Bft)
24.02.2017 02:00 6,5 C 79 % 1002,8 hPa 0,0 l/m W-NW 0,00 h 0 W/m 35,3 km/h (5 Bft)
24.02.2017 03:00 6,5 C 68 % 1003,9 hPa 0,0 l/m W-NW 0,00 h 0 W/m 27,8 km/h (4 Bft)
24.02.2017 04:00 6,1 C 68 % 1004,9 hPa 0,0 l/m W-NW 0,00 h 0 W/m 29,1 km/h (5 Bft)
24.02.2017 05:00 5,4 C 70 % 1006,0 hPa 0,0 l/m W 0,00 h 0 W/m 20,8 km/h (4 Bft)
24.02.2017 06:00 5,1 C 70 % 1007,0 hPa 0,0 l/m W-NW 0,00 h 0 W/m 17,3 km/h (3 Bft)
24.02.2017 07:00 4,8 C 67 % 1008,1 hPa 0,0 l/m W-SW 0,00 h 10 W/m 21,2 km/h (4 Bft)
24.02.2017 08:00 4,7 C 67 % 1009,0 hPa 0,0 l/m W 0,00 h 45 W/m 18,1 km/h (3 Bft)
24.02.2017 09:00 5,0 C 65 % 1009,6 hPa 0,0 l/m W-SW 0,00 h 109 W/m 17,7 km/h (3 Bft)
24.02.2017 10:00 4,4 C 71 % 1010,3 hPa 0,0 l/m W-NW 0,00 h 51 W/m 17,8 km/h (3 Bft)
24.02.2017 11:00 4,3 C 79 % 1010,7 hPa 0,0 l/m NW 0,08 h 167 W/m 7,4 km/h (2 Bft)
24.02.2017 12:00 4,5 C 78 % 1010,6 hPa 0,2 l/m N-NW 0,00 h 62 W/m 5,5 km/h (1 Bft)
24.02.2017 13:00 2,5 C 88 % 1011,2 hPa 0,0 l/m NW 0,17 h 147 W/m 9,5 km/h (2 Bft)
24.02.2017 14:00 3,6 C 88 % 1011,1 hPa 0,6 l/m S-SW 0,25 h 211 W/m 6,0 km/h (2 Bft)
24.02.2017 15:00 4,4 C 86 % 1011,5 hPa 1,6 l/m W-SW 0,33 h 217 W/m 14,0 km/h (3 Bft)
24.02.2017 16:00 3,9 C 84 % 1012,2 hPa 0,4 l/m W-SW 0,33 h 103 W/m 9,3 km/h (2 Bft)
24.02.2017 17:00 3,2 C 86 % 1013,4 hPa 0,2 l/m N-NO 0,00 h 26 W/m 6,0 km/h (2 Bft)
24.02.2017 18:00 2,7 C 89 % 1014,7 hPa 0,0 l/m NW 0,00 h 0 W/m 3,9 km/h (1 Bft)
24.02.2017 19:00 2,2 C 89 % 1016,0 hPa 0,2 l/m N-NW 0,00 h 0 W/m 5,2 km/h (1 Bft)
24.02.2017 20:00 1,4 C 91 % 1017,0 hPa 0,0 l/m N-NW 0,00 h 0 W/m 1,5 km/h (1 Bft)
24.02.2017 21:00 1,0 C 92 % 1017,9 hPa 0,0 l/m N 0,00 h 0 W/m 0,0 km/h (0 Bft)
24.02.2017 22:00 0,2 C 92 % 1018,6 hPa 0,0 l/m N 0,00 h 0 W/m 0,0 km/h (0 Bft)
24.02.2017 23:00 -0,2 C 94 % 1019,2 hPa 0,0 l/m N 0,00 h 0 W/m 0,0 km/h (0 Bft)
25.02.2017 00:00 0,0 C 94 % 1019,7 hPa 0,0 l/m N 0,00 h 0 W/m 0,0 km/h (0 Bft)
25.02.2017 01:00 0,1 C 95 % 1020,4 hPa 0,0 l/m N 0,00 h 0 W/m 0,3 km/h (0 Bft)
25.02.2017 02:00 -0,2 C 95 % 1020,6 hPa 0,0 l/m N 0,00 h 0 W/m 0,3 km/h (0 Bft)
25.02.2017 03:00 -1,0 C 95 % 1020,7 hPa 0,0 l/m N 0,00 h 0 W/m 0,0 km/h (0 Bft)
25.02.2017 04:00 -1,6 C 95 % 1020,9 hPa 0,0 l/m N 0,00 h 0 W/m 0,0 km/h (0 Bft)
25.02.2017 05:00 -1,5 C 95 % 1021,3 hPa 0,0 l/m N 0,00 h 0 W/m 0,0 km/h (0 Bft)
25.02.2017 06:00 -1,7 C 96 % 1021,7 hPa 0,0 l/m N 0,00 h 0 W/m 0,0 km/h (0 Bft)
25.02.2017 07:00 -2,1 C 96 % 1022,0 hPa 0,0 l/m N 0,00 h 17 W/m 0,0 km/h (0 Bft)
25.02.2017 08:00 -2,2 C 96 % 1022,3 hPa 0,0 l/m N 0,00 h 76 W/m 0,0 km/h (0 Bft)
25.02.2017 09:00 -1,4 C 98 % 1023,0 hPa 0,2 l/m N-NW 0,50 h 180 W/m 2,3 km/h (1 Bft)
25.02.2017 10:00 -0,1 C 98 % 1023,5 hPa 0,0 l/m N 0,83 h 321 W/m 2,1 km/h (1 Bft)
25.02.2017 11:00 3,2 C 95 % 1023,6 hPa 0,2 l/m N-NW 0,92 h 480 W/m 6,1 km/h (2 Bft)
25.02.2017 12:00 6,1 C 75 % 1022,9 hPa 0,0 l/m O-NO 1,00 h 536 W/m 11,6 km/h (2 Bft)
25.02.2017 13:00 7,8 C 61 % 1021,8 hPa 0,0 l/m O-SO 1,00 h 493 W/m 12,1 km/h (2 Bft)
25.02.2017 14:00 8,1 C 55 % 1020,8 hPa 0,0 l/m O-SO 1,00 h 411 W/m 12,1 km/h (2 Bft)
25.02.2017 15:00 8,2 C 53 % 1020,2 hPa 0,0 l/m O-SO 1,00 h 304 W/m 12,4 km/h (3 Bft)
25.02.2017 16:00 7,8 C 51 % 1019,9 hPa 0,0 l/m O 0,33 h 120 W/m 9,8 km/h (2 Bft)
25.02.2017 17:00 6,6 C 54 % 1019,9 hPa 0,0 l/m N 0,17 h 33 W/m 2,1 km/h (1 Bft)
25.02.2017 18:00 3,7 C 69 % 1020,2 hPa 0,0 l/m N 0,00 h 0 W/m 0,0 km/h (0 Bft)
25.02.2017 19:00 1,9 C 76 % 1020,3 hPa 0,0 l/m N 0,00 h 0 W/m 0,0 km/h (0 Bft)
25.02.2017 20:00 1,2 C 77 % 1020,0 hPa 0,0 l/m N 0,00 h 0 W/m 0,0 km/h (0 Bft)
25.02.2017 21:00 0,6 C 80 % 1019,9 hPa 0,0 l/m N 0,00 h 0 W/m 0,0 km/h (0 Bft)
25.02.2017 22:00 0,1 C 83 % 1019,6 hPa 0,0 l/m N 0,00 h 0 W/m 0,0 km/h (0 Bft)
25.02.2017 23:00 -0,5 C 85 % 1019,0 hPa 0,0 l/m N 0,00 h 0 W/m 0,0 km/h (0 Bft)
26.02.2017 00:00 -0,5 C 88 % 1018,9 hPa 0,0 l/m N 0,00 h 0 W/m 0,0 km/h (0 Bft)
26.02.2017 01:00 -0,5 C 89 % 1018,7 hPa 0,0 l/m N 0,00 h 0 W/m 0,0 km/h (0 Bft)
26.02.2017 02:00 -0,6 C 90 % 1018,3 hPa 0,0 l/m N 0,00 h 0 W/m 0,0 km/h (0 Bft)
26.02.2017 03:00 -0,9 C 91 % 1018,2 hPa 0,0 l/m N 0,00 h 0 W/m 0,0 km/h (0 Bft)
26.02.2017 04:00 -0,8 C 92 % 1018,0 hPa 0,0 l/m S-SW 0,00 h 0 W/m 4,3 km/h (1 Bft)
26.02.2017 05:00 -0,0 C 93 % 1018,0 hPa 0,0 l/m S-SW 0,00 h 0 W/m 5,6 km/h (1 Bft)
26.02.2017 06:00 -0,1 C 93 % 1018,0 hPa 0,0 l/m S-SW 0,00 h 0 W/m 2,7 km/h (1 Bft)
26.02.2017 07:00 -0,3 C 93 % 1018,2 hPa 0,0 l/m S-SW 0,17 h 31 W/m 2,0 km/h (1 Bft)
26.02.2017 08:00 0,7 C 94 % 1018,5 hPa 0,0 l/m S-SW 0,67 h 133 W/m 2,7 km/h (1 Bft)
26.02.2017 09:00 2,4 C 91 % 1018,7 hPa 0,0 l/m S-SW 0,08 h 167 W/m 6,0 km/h (2 Bft)
26.02.2017 10:00 3,9 C 84 % 1018,7 hPa 0,0 l/m S-SW 0,67 h 284 W/m 14,4 km/h (3 Bft)
26.02.2017 11:00 6,4 C 77 % 1018,3 hPa 0,0 l/m S-SW 1,00 h 450 W/m 18,4 km/h (3 Bft)
26.02.2017 12:00 8,9 C 67 % 1017,6 hPa 0,0 l/m S-SW 0,92 h 476 W/m 16,9 km/h (3 Bft)
26.02.2017 13:00 9,7 C 56 % 1017,0 hPa 0,0 l/m SW 0,75 h 305 W/m 20,1 km/h (4 Bft)
26.02.2017 14:00 9,3 C 54 % 1016,5 hPa 0,0 l/m W-SW 0,00 h 193 W/m 17,3 km/h (3 Bft)
26.02.2017 15:00 9,7 C 51 % 1016,0 hPa 0,0 l/m W-SW 0,33 h 193 W/m 16,4 km/h (3 Bft)
26.02.2017 16:00 9,6 C 50 % 1015,6 hPa 0,0 l/m W-SW 0,00 h 102 W/m 9,7 km/h (2 Bft)
26.02.2017 17:00 8,7 C 52 % 1015,4 hPa 0,0 l/m SW 0,25 h 35 W/m 7,6 km/h (2 Bft)
26.02.2017 18:00 6,5 C 62 % 1015,7 hPa 0,0 l/m N 0,00 h 6 W/m 0,1 km/h (0 Bft)
26.02.2017 19:00 4,3 C 71 % 1015,7 hPa 0,0 l/m N 0,00 h 0 W/m 0,4 km/h (0 Bft)
26.02.2017 20:00 3,5 C 76 % 1015,6 hPa 0,0 l/m N 0,00 h 0 W/m 0,0 km/h (0 Bft)
26.02.2017 21:00 2,9 C 77 % 1015,4 hPa 0,0 l/m N 0,00 h 0 W/m 0,0 km/h (0 Bft)
26.02.2017 22:00 1,9 C 79 % 1015,1 hPa 0,0 l/m N 0,00 h 0 W/m 0,0 km/h (0 Bft)
26.02.2017 23:00 0,9 C 81 % 1014,8 hPa 0,0 l/m N 0,00 h 0 W/m 0,0 km/h (0 Bft)
Min-Datum _ 25.02.17 23.02.17 23.02.17 - - - - 20.02.17
_ Min-Zeit 08:35 16:45 17:25 - - - - 00:05
Minimum _ -2,3 C 33 % 998,8 hPa - - - - 0,0 km/h (0 Bft)
Max-Datum _ 23.02.17 21.02.17 20.02.17 20.02.17 - 20.02.17 23.02.17 23.02.17
_ Max-Zeit 15:15 00:55 01:00 22:00 - 10:45 11:15 19:25
Maximum _ 17,0 C 100 % 1024,1 hPa 1,8 l/m - 0,08 h 628 W/m 54,7 km/h
W-SW (7 Bft)
Durchschnitt _ 6,0 C 80 % 1015,3 hPa #8,0 l/m W-SW #23:55 h 173 W/m 16,8 km/h (3 Bft)